createdAt,value
2023-04-22T00:00:06.805Z,97083.13
2023-04-22T00:02:37.196Z,97082.38
2023-04-22T00:05:06.480Z,97079.38
2023-04-22T00:07:34.278Z,97080.38
2023-04-22T00:10:01.966Z,97076.31
2023-04-22T00:12:29.769Z,97080.69
2023-04-22T00:14:57.448Z,97078.34
2023-04-22T00:17:25.313Z,97082.16
2023-04-22T00:19:53.120Z,97089.00
2023-04-22T00:22:20.896Z,97089.56
2023-04-22T00:24:48.544Z,97084.19
2023-04-22T00:27:16.291Z,97088.31
2023-04-22T00:29:44.013Z,97089.13
2023-04-22T00:32:11.769Z,97092.03
2023-04-22T00:34:39.472Z,97091.69
2023-04-22T00:37:07.331Z,97088.44
2023-04-22T00:39:35.430Z,97091.59
2023-04-22T00:42:03.200Z,97082.59
2023-04-22T00:44:30.955Z,97091.81
2023-04-22T00:46:59.482Z,97097.19
2023-04-22T00:49:27.575Z,97097.06
2023-04-22T00:51:55.396Z,97089.75
2023-04-22T00:54:23.299Z,97090.50
2023-04-22T00:56:51.110Z,97094.47
2023-04-22T00:59:18.814Z,97103.22
2023-04-22T01:01:46.647Z,97096.81
2023-04-22T01:04:15.393Z,97103.22
2023-04-22T01:06:44.891Z,97105.56
2023-04-22T01:09:12.600Z,97101.44
2023-04-22T01:11:40.367Z,97107.81
2023-04-22T01:14:08.316Z,97105.94
2023-04-22T01:16:39.161Z,97097.84
2023-04-22T01:19:08.275Z,97103.69
2023-04-22T01:21:36.010Z,97109.00
2023-04-22T01:24:03.772Z,97109.19
2023-04-22T01:26:31.596Z,97116.75
2023-04-22T01:28:59.369Z,97103.75
2023-04-22T01:31:27.140Z,97101.72
2023-04-22T01:33:54.859Z,97096.84
2023-04-22T01:36:22.595Z,97092.81
2023-04-22T01:38:50.314Z,97099.00
2023-04-22T01:41:18.060Z,97093.53
2023-04-22T01:43:45.756Z,97087.16
2023-04-22T01:46:13.524Z,97090.28
2023-04-22T01:48:41.267Z,97092.75
2023-04-22T01:51:09.413Z,97091.34
2023-04-22T01:53:37.413Z,97089.41
2023-04-22T01:56:05.280Z,97084.84
2023-04-22T01:58:33.391Z,97099.88
2023-04-22T02:01:01.232Z,97087.69
2023-04-22T02:03:29.056Z,97092.38
2023-04-22T02:05:56.983Z,97094.75
2023-04-22T02:08:24.717Z,97096.13
2023-04-22T02:10:52.436Z,97094.72
2023-04-22T02:13:20.170Z,97088.06
2023-04-22T02:15:49.949Z,97090.19
2023-04-22T02:18:18.808Z,97101.22
2023-04-22T02:20:46.560Z,97100.38
2023-04-22T02:23:14.288Z,97099.44
2023-04-22T02:25:49.315Z,97095.28
2023-04-22T02:28:19.381Z,97099.84
2023-04-22T02:30:47.073Z,97105.06
2023-04-22T02:33:15.782Z,97109.63
2023-04-22T02:35:43.499Z,97105.63
2023-04-22T02:38:17.279Z,97096.97
2023-04-22T02:40:45.001Z,97104.91
2023-04-22T02:43:13.341Z,97100.06
2023-04-22T02:45:41.126Z,97105.44
2023-04-22T02:48:09.188Z,97110.41
2023-04-22T02:50:37.183Z,97104.22
2023-04-22T02:53:05.050Z,97109.47
2023-04-22T02:55:32.809Z,97111.47
2023-04-22T02:58:00.628Z,97110.22
2023-04-22T03:00:28.385Z,97116.19
2023-04-22T03:02:56.477Z,97117.63
2023-04-22T03:05:30.640Z,97119.06
2023-04-22T03:07:58.730Z,97112.44
2023-04-22T03:10:29.781Z,97122.00
2023-04-22T03:12:57.572Z,97123.88
2023-04-22T03:15:25.534Z,97120.63
2023-04-22T03:17:53.362Z,97121.63
2023-04-22T03:20:22.152Z,97129.59
2023-04-22T03:22:49.959Z,97122.13
2023-04-22T03:25:17.922Z,97121.03
2023-04-22T03:27:51.436Z,97124.72
2023-04-22T03:30:19.399Z,97125.50
2023-04-22T03:32:48.302Z,97127.13
2023-04-22T03:35:22.687Z,97118.69
2023-04-22T03:37:52.204Z,97133.88
2023-04-22T03:40:25.463Z,97128.66
2023-04-22T03:42:54.278Z,97133.34
2023-04-22T03:45:23.012Z,97136.31
2023-04-22T03:48:03.243Z,97132.56
2023-04-22T03:50:39.483Z,97134.13
2023-04-22T03:53:08.005Z,97138.56
2023-04-22T03:55:36.379Z,97142.59
2023-04-22T03:58:04.263Z,97143.56
2023-04-22T04:00:31.971Z,97140.63
2023-04-22T04:03:09.353Z,97143.63
2023-04-22T04:05:38.277Z,97149.88
2023-04-22T04:08:06.418Z,97155.81
2023-04-22T04:10:34.215Z,97160.88
2023-04-22T04:13:03.636Z,97163.56
2023-04-22T04:15:39.143Z,97169.19
2023-04-22T04:18:08.082Z,97163.69
2023-04-22T04:20:35.799Z,97173.00
2023-04-22T04:23:03.568Z,97176.56
2023-04-22T04:25:38.848Z,97173.25
2023-04-22T04:28:11.226Z,97180.09
2023-04-22T04:30:41.699Z,97176.47
2023-04-22T04:33:10.179Z,97181.84
2023-04-22T04:35:39.666Z,97188.25
2023-04-22T04:38:09.320Z,97182.34
2023-04-22T04:40:37.704Z,97178.47
2023-04-22T04:43:14.391Z,97187.22
2023-04-22T04:45:49.978Z,97185.91
2023-04-22T04:48:27.778Z,97200.78
2023-04-22T04:51:01.992Z,97193.72
2023-04-22T04:53:32.966Z,97201.25
2023-04-22T04:56:00.815Z,97198.94
2023-04-22T04:58:30.081Z,97212.91
2023-04-22T05:01:18.031Z,97216.97
2023-04-22T05:03:47.371Z,97219.88
2023-04-22T05:06:17.833Z,97216.88
2023-04-22T05:08:50.644Z,97216.22
2023-04-22T05:11:19.744Z,97207.91
2023-04-22T05:13:50.249Z,97212.84
2023-04-22T05:16:24.465Z,97208.78
2023-04-22T05:18:52.227Z,97210.19
2023-04-22T05:21:20.352Z,97201.31
2023-04-22T05:23:48.694Z,97211.75
2023-04-22T05:26:16.539Z,97201.63
2023-04-22T05:28:47.174Z,97213.75
2023-04-22T05:31:15.587Z,97207.63
2023-04-22T05:33:43.535Z,97212.72
2023-04-22T05:36:11.286Z,97204.00
2023-04-22T05:38:39.030Z,97213.47
2023-04-22T05:41:06.741Z,97208.28
2023-04-22T05:43:34.616Z,97212.53
2023-04-22T05:46:08.741Z,97212.53
2023-04-22T05:48:39.279Z,97210.97
2023-04-22T05:51:10.505Z,97205.38
2023-04-22T05:53:38.948Z,97202.19
2023-04-22T05:56:06.704Z,97199.75
2023-04-22T05:58:34.570Z,97207.00
2023-04-22T06:01:09.894Z,97205.56
2023-04-22T06:03:58.116Z,97200.91
2023-04-22T06:06:27.544Z,97204.31
2023-04-22T06:08:55.458Z,97201.28
2023-04-22T06:11:23.144Z,97205.50
2023-04-22T06:13:51.355Z,97211.09
2023-04-22T06:16:19.184Z,97211.00
2023-04-22T06:18:47.017Z,97209.44
2023-04-22T06:21:15.644Z,97219.75
2023-04-22T06:23:43.430Z,97215.34
2023-04-22T06:26:11.233Z,97220.56
2023-04-22T06:28:39.642Z,97217.75
2023-04-22T06:31:12.250Z,97216.44
2023-04-22T06:33:41.293Z,97220.44
2023-04-22T06:36:09.327Z,97220.38
2023-04-22T06:38:38.376Z,97221.16
2023-04-22T06:41:22.868Z,97215.91
2023-04-22T06:43:53.003Z,97225.06
2023-04-22T06:46:43.825Z,97216.84
2023-04-22T06:49:30.355Z,97210.97
2023-04-22T06:52:07.954Z,97215.38
2023-04-22T06:54:36.337Z,97222.81
2023-04-22T06:57:04.187Z,97222.25
2023-04-22T06:59:31.908Z,97219.03
2023-04-22T07:01:59.957Z,97233.59
2023-04-22T07:04:31.722Z,97230.03
2023-04-22T07:07:01.306Z,97228.75
2023-04-22T07:09:29.829Z,97236.34
2023-04-22T07:11:58.929Z,97233.66
2023-04-22T07:14:30.263Z,97239.06
2023-04-22T07:16:58.720Z,97238.28
2023-04-22T07:19:27.022Z,97238.66
2023-04-22T07:21:54.857Z,97238.53
2023-04-22T07:24:23.613Z,97242.78
2023-04-22T07:26:51.358Z,97241.84
2023-04-22T07:29:19.338Z,97250.97
2023-04-22T07:31:47.190Z,97243.75
2023-04-22T07:34:14.954Z,97246.81
2023-04-22T07:36:42.693Z,97247.31
2023-04-22T07:39:10.384Z,97246.31
2023-04-22T07:41:38.212Z,97253.34
2023-04-22T07:44:05.928Z,97243.50
2023-04-22T07:46:34.333Z,97249.69
2023-04-22T07:49:02.044Z,97250.44
2023-04-22T07:51:31.256Z,97259.25
2023-04-22T07:53:58.942Z,97256.28
2023-04-22T07:56:26.839Z,97256.09
2023-04-22T07:58:54.501Z,97247.16
2023-04-22T08:01:22.285Z,97243.38
2023-04-22T08:03:50.173Z,97249.63
2023-04-22T08:06:18.024Z,97252.78
2023-04-22T08:08:45.966Z,97258.22
2023-04-22T08:11:13.811Z,97253.72
2023-04-22T08:13:41.472Z,97251.63
2023-04-22T08:16:09.331Z,97252.78
2023-04-22T08:18:37.109Z,97244.09
2023-04-22T08:21:04.903Z,97243.56
2023-04-22T08:23:32.656Z,97246.91
2023-04-22T08:26:00.423Z,97251.19
2023-04-22T08:28:28.214Z,97240.66
2023-04-22T08:30:55.951Z,97246.38
2023-04-22T08:33:25.874Z,97242.84
2023-04-22T08:35:54.794Z,97246.00
2023-04-22T08:38:22.473Z,97237.97
2023-04-22T08:40:50.268Z,97236.31
2023-04-22T08:43:17.928Z,97234.19
2023-04-22T08:45:45.974Z,97229.50
2023-04-22T08:48:13.657Z,97233.06
2023-04-22T08:50:41.464Z,97238.22
2023-04-22T08:53:09.135Z,97229.19
2023-04-22T08:55:36.890Z,97234.91
2023-04-22T08:58:06.150Z,97233.06
2023-04-22T09:00:34.710Z,97217.44
2023-04-22T09:03:03.376Z,97219.22
2023-04-22T09:05:33.758Z,97215.31
2023-04-22T09:08:01.539Z,97210.66
2023-04-22T09:10:31.098Z,97209.91
2023-04-22T09:13:00.221Z,97210.16
2023-04-22T09:15:27.898Z,97212.47
2023-04-22T09:17:56.746Z,97210.91
2023-04-22T09:20:28.641Z,97210.25
2023-04-22T09:22:57.206Z,97199.44
2023-04-22T09:25:26.519Z,97208.84
2023-04-22T09:27:58.351Z,97210.88
2023-04-22T09:30:30.780Z,97204.97
2023-04-22T09:33:02.623Z,97206.72
2023-04-22T09:35:40.539Z,97212.47
2023-04-22T09:38:09.442Z,97208.47
2023-04-22T09:40:38.857Z,97207.22
2023-04-22T09:43:07.490Z,97211.34
2023-04-22T09:45:42.259Z,97203.38
2023-04-22T09:48:11.559Z,97204.69
2023-04-22T09:50:43.430Z,97206.44
2023-04-22T09:53:16.928Z,97213.22
2023-04-22T09:55:49.562Z,97206.94
2023-04-22T09:58:18.523Z,97214.31
2023-04-22T10:00:50.683Z,97208.59
2023-04-22T10:03:19.228Z,97206.47
2023-04-22T10:05:47.242Z,97213.59
2023-04-22T10:08:15.703Z,97205.28
2023-04-22T10:10:44.017Z,97200.34
2023-04-22T10:13:11.895Z,97198.50
2023-04-22T10:15:41.476Z,97197.84
2023-04-22T10:18:12.027Z,97194.19
2023-04-22T10:20:41.087Z,97192.00
2023-04-22T10:23:16.308Z,97190.28
2023-04-22T10:25:44.995Z,97185.22
2023-04-22T10:28:14.409Z,97186.91
2023-04-22T10:30:42.209Z,97191.00
2023-04-22T10:33:23.858Z,97179.63
2023-04-22T10:36:11.042Z,97185.34
2023-04-22T10:38:59.625Z,97171.34
2023-04-22T10:41:34.509Z,97184.31
2023-04-22T10:44:08.912Z,97182.41
2023-04-22T10:46:40.336Z,97179.91
2023-04-22T10:49:11.672Z,97187.56
2023-04-22T10:51:43.743Z,97178.38
2023-04-22T10:54:28.795Z,97171.56
2023-04-22T10:57:08.805Z,97180.66
2023-04-22T10:59:42.648Z,97179.56
2023-04-22T11:02:11.767Z,97175.97
2023-04-22T11:04:39.976Z,97176.22
2023-04-22T11:07:26.485Z,97171.50
2023-04-22T11:10:07.348Z,97177.34
2023-04-22T11:12:35.022Z,97174.97
2023-04-22T11:15:18.567Z,97181.91
2023-04-22T11:17:47.546Z,97177.59
2023-04-22T11:20:18.024Z,97187.94
2023-04-22T11:22:47.589Z,97179.75
2023-04-22T11:25:15.466Z,97177.19
2023-04-22T11:27:43.751Z,97176.94
2023-04-22T11:30:18.854Z,97185.13
2023-04-22T11:32:50.761Z,97177.56
2023-04-22T11:35:32.216Z,97180.13
2023-04-22T11:38:01.688Z,97174.25
2023-04-22T11:40:35.842Z,97173.09
2023-04-22T11:43:06.504Z,97173.63
2023-04-22T11:45:34.992Z,97168.75
2023-04-22T11:48:03.344Z,97174.59
2023-04-22T11:50:32.942Z,97170.22
2023-04-22T11:53:02.518Z,97163.88
2023-04-22T11:55:34.728Z,97170.00
2023-04-22T11:58:12.473Z,97167.78
2023-04-22T12:00:46.729Z,97168.41
2023-04-22T12:03:18.257Z,97168.72
2023-04-22T12:05:47.179Z,97164.47
2023-04-22T12:08:19.034Z,97175.31
2023-04-22T12:10:54.727Z,97173.41
2023-04-22T12:13:33.047Z,97172.03
2023-04-22T12:16:04.695Z,97164.22
2023-04-22T12:18:39.959Z,97168.66
2023-04-22T12:21:07.704Z,97167.16
2023-04-22T12:24:11.311Z,97176.94
2023-04-22T12:26:39.000Z,97168.72
2023-04-22T12:29:06.868Z,97174.94
2023-04-22T12:31:34.691Z,97163.78
2023-04-22T12:34:02.630Z,97170.69
2023-04-22T12:36:32.477Z,97174.06
2023-04-22T12:39:00.300Z,97168.06
2023-04-22T12:41:28.099Z,97163.44
2023-04-22T12:43:55.822Z,97165.00
2023-04-22T12:46:23.720Z,97167.66
2023-04-22T12:48:51.591Z,97159.13
2023-04-22T12:51:19.329Z,97166.00
2023-04-22T12:53:47.028Z,97158.28
2023-04-22T12:56:14.768Z,97158.25
2023-04-22T12:58:42.436Z,97158.97
2023-04-22T13:01:10.179Z,97151.97
2023-04-22T13:03:37.989Z,97150.47
2023-04-22T13:06:06.047Z,97147.41
2023-04-22T13:08:33.727Z,97151.78
2023-04-22T13:11:01.489Z,97146.03
2023-04-22T13:13:29.204Z,97146.06
2023-04-22T13:15:57.063Z,97145.53
2023-04-22T13:18:24.889Z,97142.66
2023-04-22T13:20:52.609Z,97151.81
2023-04-22T13:23:21.772Z,97139.28
2023-04-22T13:25:50.408Z,97158.31
2023-04-22T13:28:18.196Z,97155.41
2023-04-22T13:30:45.958Z,97145.22
2023-04-22T13:33:13.649Z,97151.69
2023-04-22T13:35:41.656Z,97149.94
2023-04-22T13:38:09.410Z,97151.97
2023-04-22T13:40:37.147Z,97143.41
2023-04-22T13:43:04.827Z,97156.41
2023-04-22T13:45:32.578Z,97149.94
2023-04-22T13:48:00.372Z,97141.91
2023-04-22T13:50:28.119Z,97149.97
2023-04-22T13:52:56.508Z,97153.91
2023-04-22T13:55:24.315Z,97160.28
2023-04-22T13:57:52.097Z,97156.66
2023-04-22T14:00:20.914Z,97164.97
2023-04-22T14:02:48.969Z,97161.63
2023-04-22T14:05:17.084Z,97151.97
2023-04-22T14:07:44.796Z,97161.09
2023-04-22T14:10:13.820Z,97158.78
2023-04-22T14:12:41.994Z,97160.63
2023-04-22T14:15:11.250Z,97157.50
2023-04-22T14:17:39.909Z,97153.06
2023-04-22T14:20:08.814Z,97155.16
2023-04-22T14:22:36.561Z,97151.53
2023-04-22T14:25:04.542Z,97155.06
2023-04-22T14:27:32.814Z,97157.66
2023-04-22T14:30:01.293Z,97160.81
2023-04-22T14:32:29.347Z,97165.53
2023-04-22T14:34:57.194Z,97156.25
2023-04-22T14:37:25.056Z,97160.81
2023-04-22T14:39:52.823Z,97158.56
2023-04-22T14:42:20.517Z,97165.31
2023-04-22T14:44:48.354Z,97165.59
2023-04-22T14:47:16.157Z,97163.75
2023-04-22T14:49:43.861Z,97167.59
2023-04-22T14:52:11.529Z,97166.13
2023-04-22T14:54:39.277Z,97165.84
2023-04-22T14:57:07.155Z,97154.41
2023-04-22T14:59:35.021Z,97168.19
2023-04-22T15:02:03.246Z,97166.09
2023-04-22T15:04:31.330Z,97169.44
2023-04-22T15:07:00.055Z,97166.56
2023-04-22T15:09:27.924Z,97161.97
2023-04-22T15:11:56.516Z,97155.72
2023-04-22T15:14:24.378Z,97168.44
2023-04-22T15:16:52.113Z,97163.75
2023-04-22T15:19:19.776Z,97169.69
2023-04-22T15:21:47.607Z,97171.81
2023-04-22T15:24:15.297Z,97169.44
2023-04-22T15:26:43.171Z,97169.38
2023-04-22T15:29:11.322Z,97162.94
2023-04-22T15:31:39.114Z,97170.16
2023-04-22T15:34:06.930Z,97171.72
2023-04-22T15:36:34.689Z,97163.47
2023-04-22T15:39:04.252Z,97165.06
2023-04-22T15:41:35.520Z,97160.13
2023-04-22T15:44:03.667Z,97166.66
2023-04-22T15:46:33.051Z,97170.03
2023-04-22T15:49:00.805Z,97170.03
2023-04-22T15:51:28.716Z,97175.19
2023-04-22T15:53:59.765Z,97179.66
2023-04-22T15:56:29.477Z,97179.41
2023-04-22T15:58:57.200Z,97178.00
2023-04-22T16:01:24.958Z,97176.63
2023-04-22T16:03:52.779Z,97180.91
2023-04-22T16:06:20.737Z,97180.91
2023-04-22T16:08:48.552Z,97173.16
2023-04-22T16:11:16.367Z,97181.22
2023-04-22T16:13:44.448Z,97188.47
2023-04-22T16:16:12.257Z,97184.03
2023-04-22T16:18:42.123Z,97186.09
2023-04-22T16:21:11.475Z,97186.88
2023-04-22T16:23:39.192Z,97195.47
2023-04-22T16:26:07.023Z,97198.31
2023-04-22T16:28:34.726Z,97194.41
2023-04-22T16:31:02.535Z,97202.78
2023-04-22T16:33:30.262Z,97207.50
2023-04-22T16:35:58.017Z,97201.75
2023-04-22T16:38:25.848Z,97202.03
2023-04-22T16:40:54.316Z,97209.31
2023-04-22T16:43:22.208Z,97201.50
2023-04-22T16:45:50.037Z,97213.78
2023-04-22T16:48:17.719Z,97202.84
2023-04-22T16:50:45.616Z,97218.22
2023-04-22T16:53:13.286Z,97215.59
2023-04-22T16:55:41.504Z,97219.78
2023-04-22T16:58:09.189Z,97215.88
2023-04-22T17:00:37.473Z,97221.34
2023-04-22T17:03:06.159Z,97226.03
2023-04-22T17:05:34.006Z,97230.59
2023-04-22T17:08:02.098Z,97231.53
2023-04-22T17:10:30.029Z,97236.34
2023-04-22T17:12:57.763Z,97245.72
2023-04-22T17:15:25.586Z,97244.94
2023-04-22T17:17:53.320Z,97248.41
2023-04-22T17:20:21.023Z,97253.41
2023-04-22T17:22:48.677Z,97261.97
2023-04-22T17:25:16.484Z,97253.28
2023-04-22T17:27:44.200Z,97265.44
2023-04-22T17:30:12.375Z,97269.56
2023-04-22T17:32:40.132Z,97271.22
2023-04-22T17:35:09.652Z,97272.09
2023-04-22T17:37:37.370Z,97282.13
2023-04-22T17:40:08.434Z,97279.53
2023-04-22T17:42:45.753Z,97276.09
2023-04-22T17:45:14.184Z,97292.13
2023-04-22T17:47:41.855Z,97283.19
2023-04-22T17:50:09.887Z,97293.53
2023-04-22T17:52:37.652Z,97284.59
2023-04-22T17:55:06.116Z,97294.16
2023-04-22T17:57:33.947Z,97285.53
2023-04-22T18:00:01.725Z,97294.06
2023-04-22T18:02:29.509Z,97298.81
2023-04-22T18:04:57.537Z,97304.91
2023-04-22T18:07:25.272Z,97304.50
2023-04-22T18:09:52.962Z,97309.13
2023-04-22T18:12:24.156Z,97308.56
2023-04-22T18:14:52.098Z,97319.91
2023-04-22T18:17:20.280Z,97327.84
2023-04-22T18:19:51.274Z,97327.44
2023-04-22T18:22:19.172Z,97331.13
2023-04-22T18:24:46.894Z,97336.47
2023-04-22T18:27:14.768Z,97337.72
2023-04-22T18:29:42.751Z,97332.31
2023-04-22T18:32:11.165Z,97346.81
2023-04-22T18:34:39.691Z,97343.72
2023-04-22T18:37:07.560Z,97347.03
2023-04-22T18:39:35.655Z,97349.31
2023-04-22T18:42:04.448Z,97351.84
2023-04-22T18:44:32.179Z,97359.31
2023-04-22T18:47:00.419Z,97361.09
2023-04-22T18:49:28.135Z,97358.88
2023-04-22T18:51:55.853Z,97363.25
2023-04-22T18:54:23.563Z,97358.75
2023-04-22T18:56:51.486Z,97363.47
2023-04-22T18:59:19.133Z,97365.91
2023-04-22T19:01:46.923Z,97373.41
2023-04-22T19:04:14.731Z,97363.06
2023-04-22T19:06:42.589Z,97368.97
2023-04-22T19:09:10.311Z,97375.47
2023-04-22T19:11:38.025Z,97366.06
2023-04-22T19:14:05.920Z,97367.56
2023-04-22T19:16:33.931Z,97370.09
2023-04-22T19:19:01.850Z,97371.56
2023-04-22T19:21:30.058Z,97361.13
2023-04-22T19:23:57.895Z,97368.69
2023-04-22T19:26:28.993Z,97372.72
2023-04-22T19:28:56.790Z,97376.09
2023-04-22T19:31:25.280Z,97367.94
2023-04-22T19:33:53.109Z,97375.16
2023-04-22T19:36:20.887Z,97367.47
2023-04-22T19:38:48.566Z,97378.16
2023-04-22T19:41:16.880Z,97368.66
2023-04-22T19:43:44.597Z,97367.72
2023-04-22T19:46:12.321Z,97373.53
2023-04-22T19:48:40.774Z,97374.47
2023-04-22T19:51:10.079Z,97382.34
2023-04-22T19:53:37.951Z,97375.63
2023-04-22T19:56:05.678Z,97386.63
2023-04-22T19:58:33.379Z,97380.56
2023-04-22T20:01:01.283Z,97382.44
2023-04-22T20:03:29.339Z,97379.25
2023-04-22T20:05:57.905Z,97390.16
2023-04-22T20:08:27.419Z,97384.66
2023-04-22T20:10:55.216Z,97388.69
2023-04-22T20:13:23.024Z,97385.63
2023-04-22T20:15:51.022Z,97396.78
2023-04-22T20:18:18.794Z,97388.31
2023-04-22T20:20:49.863Z,97382.78
2023-04-22T20:23:17.576Z,97388.53
2023-04-22T20:25:45.664Z,97386.16
2023-04-22T20:28:13.743Z,97390.50
2023-04-22T20:30:41.687Z,97388.53
2023-04-22T20:33:12.238Z,97386.88
2023-04-22T20:35:40.361Z,97388.06
2023-04-22T20:38:08.955Z,97384.84
2023-04-22T20:40:36.736Z,97387.44
2023-04-22T20:43:04.845Z,97389.16
2023-04-22T20:45:32.625Z,97390.50
2023-04-22T20:48:00.560Z,97397.59
2023-04-22T20:50:33.367Z,97386.31
2023-04-22T20:53:01.330Z,97389.75
2023-04-22T20:55:29.022Z,97393.56
2023-04-22T20:57:56.792Z,97394.47
2023-04-22T21:00:24.949Z,97404.00
2023-04-22T21:02:52.908Z,97396.47
2023-04-22T21:05:21.933Z,97393.91
2023-04-22T21:07:52.077Z,97395.72
2023-04-22T21:10:20.771Z,97392.84
2023-04-22T21:12:48.910Z,97392.53
2023-04-22T21:15:16.986Z,97392.19
2023-04-22T21:17:51.712Z,97392.91
2023-04-22T21:20:19.821Z,97384.28
2023-04-22T21:22:47.518Z,97379.69
2023-04-22T21:25:19.675Z,97382.47
2023-04-22T21:27:47.719Z,97383.59
2023-04-22T21:30:15.978Z,97385.09
2023-04-22T21:32:44.192Z,97389.25
2023-04-22T21:35:11.927Z,97387.53
2023-04-22T21:37:39.663Z,97381.50
2023-04-22T21:40:08.072Z,97387.72
2023-04-22T21:42:35.921Z,97382.81
2023-04-22T21:45:04.434Z,97387.53
2023-04-22T21:47:32.316Z,97392.97
2023-04-22T21:50:00.000Z,97387.09
2023-04-22T21:52:27.732Z,97394.78
2023-04-22T21:54:55.640Z,97395.53
2023-04-22T21:57:23.536Z,97394.03
2023-04-22T21:59:51.184Z,97391.94
2023-04-22T22:02:19.257Z,97394.81
2023-04-22T22:04:47.169Z,97402.53
2023-04-22T22:07:17.479Z,97396.31
2023-04-22T22:09:46.452Z,97398.28
2023-04-22T22:12:15.516Z,97398.41
2023-04-22T22:14:43.436Z,97393.59
2023-04-22T22:17:12.527Z,97387.44
2023-04-22T22:19:41.947Z,97399.38
2023-04-22T22:22:09.704Z,97405.22
2023-04-22T22:24:37.416Z,97393.50
2023-04-22T22:27:05.486Z,97400.78
2023-04-22T22:29:33.176Z,97397.16
2023-04-22T22:32:00.980Z,97401.00
2023-04-22T22:34:29.411Z,97403.06
2023-04-22T22:36:57.209Z,97402.41
2023-04-22T22:39:24.978Z,97401.69
2023-04-22T22:41:52.896Z,97393.22
2023-04-22T22:44:20.604Z,97390.66
2023-04-22T22:46:48.404Z,97403.94
2023-04-22T22:49:16.100Z,97405.38
2023-04-22T22:51:43.896Z,97404.13
2023-04-22T22:54:11.840Z,97402.78
2023-04-22T22:56:39.663Z,97399.25
2023-04-22T22:59:07.343Z,97400.78
2023-04-22T23:01:35.195Z,97400.00
2023-04-22T23:04:03.206Z,97399.53
2023-04-22T23:06:31.953Z,97407.81
2023-04-22T23:08:59.705Z,97403.22
2023-04-22T23:11:27.449Z,97410.34
2023-04-22T23:13:55.152Z,97407.63
2023-04-22T23:16:23.049Z,97403.91
2023-04-22T23:18:50.715Z,97405.69
2023-04-22T23:21:19.149Z,97404.59
2023-04-22T23:23:46.817Z,97404.78
2023-04-22T23:26:14.835Z,97405.72
2023-04-22T23:28:42.884Z,97412.09
2023-04-22T23:31:10.756Z,97414.13
2023-04-22T23:33:39.738Z,97412.41
2023-04-22T23:36:07.974Z,97404.59
2023-04-22T23:38:35.748Z,97400.78
2023-04-22T23:41:03.419Z,97405.75
2023-04-22T23:43:31.164Z,97399.28
2023-04-22T23:45:58.928Z,97404.88
2023-04-22T23:48:26.706Z,97404.66
2023-04-22T23:50:54.413Z,97393.28
2023-04-22T23:53:22.224Z,97404.28
2023-04-22T23:55:50.174Z,97407.03
2023-04-22T23:58:17.985Z,97394.72
